createdAt,value
2018-02-14T00:00:37.613Z,-4.20
2018-02-14T00:03:05.269Z,-4.20
2018-02-14T00:05:32.906Z,-4.30
2018-02-14T00:08:00.576Z,-4.30
2018-02-14T00:10:28.236Z,-4.30
2018-02-14T00:12:55.951Z,-4.40
2018-02-14T00:15:24.385Z,-4.40
2018-02-14T00:17:52.045Z,-4.40
2018-02-14T00:20:19.685Z,-4.40
2018-02-14T00:22:48.108Z,-4.40
2018-02-14T00:25:15.752Z,-4.50
2018-02-14T00:27:43.432Z,-4.50
2018-02-14T00:30:11.104Z,-4.50
2018-02-14T00:32:38.760Z,-4.50
2018-02-14T00:35:06.394Z,-4.50
2018-02-14T00:37:34.064Z,-4.60
2018-02-14T00:40:01.734Z,-4.60
2018-02-14T00:42:29.374Z,-4.60
2018-02-14T00:44:57.059Z,-4.60
2018-02-14T00:47:24.685Z,-4.60
2018-02-14T00:49:52.368Z,-4.60
2018-02-14T00:52:19.993Z,-4.60
2018-02-14T00:54:48.408Z,-4.60
2018-02-14T00:57:16.067Z,-4.70
2018-02-14T00:59:43.713Z,-4.70
2018-02-14T01:02:11.356Z,-4.70
2018-02-14T01:04:39.777Z,-4.70
2018-02-14T01:07:07.414Z,-4.70
2018-02-14T01:09:35.085Z,-4.70
2018-02-14T01:12:02.736Z,-4.80
2018-02-14T01:14:30.348Z,-4.80
2018-02-14T01:16:58.033Z,-4.80
2018-02-14T01:19:26.417Z,-4.90
2018-02-14T01:21:54.828Z,-4.80
2018-02-14T01:24:22.466Z,-4.90
2018-02-14T01:26:50.109Z,-4.80
2018-02-14T01:29:18.517Z,-4.90
2018-02-14T01:31:46.183Z,-4.90
2018-02-14T01:34:13.805Z,-4.90
2018-02-14T01:36:41.450Z,-4.90
2018-02-14T01:39:09.063Z,-4.90
2018-02-14T01:41:36.691Z,-4.90
2018-02-14T01:44:04.271Z,-4.90
2018-02-14T01:46:32.634Z,-5.00
2018-02-14T01:49:00.989Z,-5.00
2018-02-14T01:51:28.619Z,-5.00
2018-02-14T01:53:56.226Z,-5.00
2018-02-14T01:56:24.582Z,-5.10
2018-02-14T01:58:52.195Z,-5.10
2018-02-14T02:01:19.798Z,-5.10
2018-02-14T02:03:47.444Z,-5.10
2018-02-14T02:06:15.023Z,-5.10
2018-02-14T02:08:42.662Z,-5.10
2018-02-14T02:11:10.274Z,-5.20
2018-02-14T02:13:38.651Z,-5.20
2018-02-14T02:16:07.009Z,-5.20
2018-02-14T02:18:34.627Z,-5.30
2018-02-14T02:21:02.255Z,-5.30
2018-02-14T02:23:30.627Z,-5.30
2018-02-14T02:25:58.990Z,-5.30
2018-02-14T02:28:26.614Z,-5.40
2018-02-14T02:30:54.201Z,-5.40
2018-02-14T02:33:22.800Z,-5.40
2018-02-14T02:35:50.386Z,-5.40
2018-02-14T02:38:17.972Z,-5.40
2018-02-14T02:40:45.580Z,-5.40
2018-02-14T02:43:13.935Z,-5.50
2018-02-14T02:45:41.550Z,-5.50
2018-02-14T02:48:09.122Z,-5.50
2018-02-14T02:50:36.744Z,-5.50
2018-02-14T02:53:05.099Z,-5.50
2018-02-14T02:55:32.728Z,-5.50
2018-02-14T02:58:00.315Z,-5.50
2018-02-14T03:00:27.927Z,-5.50
2018-02-14T03:02:55.515Z,-5.50
2018-02-14T03:05:23.118Z,-5.60
2018-02-14T03:07:51.481Z,-5.60
2018-02-14T03:10:19.108Z,-5.60
2018-02-14T03:12:46.686Z,-5.60
2018-02-14T03:15:14.303Z,-5.60
2018-02-14T03:17:41.895Z,-5.60
2018-02-14T03:20:09.467Z,-5.70
2018-02-14T03:22:37.075Z,-5.60
2018-02-14T03:25:04.659Z,-5.70
2018-02-14T03:27:32.270Z,-5.70
2018-02-14T03:30:00.619Z,-5.70
2018-02-14T03:32:28.273Z,-5.70
2018-02-14T03:34:55.851Z,-5.70
2018-02-14T03:37:23.463Z,-5.80
2018-02-14T03:39:51.048Z,-5.80
2018-02-14T03:42:18.658Z,-5.80
2018-02-14T03:44:47.025Z,-5.80
2018-02-14T03:47:15.411Z,-5.80
2018-02-14T03:49:43.755Z,-5.80
2018-02-14T03:52:11.343Z,-5.90
2018-02-14T03:54:38.981Z,-5.90
2018-02-14T03:57:06.567Z,-5.90
2018-02-14T03:59:34.950Z,-5.90
2018-02-14T04:02:03.303Z,-5.90
2018-02-14T04:04:30.915Z,-5.90
2018-02-14T04:06:58.490Z,-5.90
2018-02-14T04:09:26.096Z,-5.90
2018-02-14T04:11:54.454Z,-6.00
2018-02-14T04:14:22.079Z,-6.00
2018-02-14T04:16:49.659Z,-6.00
2018-02-14T04:19:17.283Z,-6.00
2018-02-14T04:21:44.874Z,-6.00
2018-02-14T04:24:12.484Z,-6.00
2018-02-14T04:26:40.082Z,-6.00
2018-02-14T04:29:07.683Z,-6.00
2018-02-14T04:31:35.266Z,-6.00
2018-02-14T04:34:02.875Z,-6.10
2018-02-14T04:36:30.462Z,-6.10
2018-02-14T04:38:58.097Z,-6.10
2018-02-14T04:41:25.694Z,-6.10
2018-02-14T04:43:54.071Z,-6.10
2018-02-14T04:46:22.434Z,-6.10
2018-02-14T04:48:50.049Z,-6.10
2018-02-14T04:51:17.627Z,-6.10
2018-02-14T04:53:45.287Z,-6.20
2018-02-14T04:56:12.878Z,-6.20
2018-02-14T04:58:41.230Z,-6.20
2018-02-14T05:01:08.849Z,-6.20
2018-02-14T05:03:36.448Z,-6.20
2018-02-14T05:06:04.082Z,-6.20
2018-02-14T05:08:31.681Z,-6.20
2018-02-14T05:10:59.301Z,-6.20
2018-02-14T05:13:26.879Z,-6.30
2018-02-14T05:15:54.483Z,-6.20
2018-02-14T05:18:22.850Z,-6.30
2018-02-14T05:20:50.451Z,-6.30
2018-02-14T05:23:18.049Z,-6.30
2018-02-14T05:25:45.666Z,-6.30
2018-02-14T05:28:13.246Z,-6.30
2018-02-14T05:30:40.871Z,-6.30
2018-02-14T05:33:09.238Z,-6.30
2018-02-14T05:35:37.693Z,-6.30
2018-02-14T05:38:05.300Z,-6.30
2018-02-14T05:40:32.898Z,-6.30
2018-02-14T05:43:00.529Z,-6.40
2018-02-14T05:45:28.126Z,-6.40
2018-02-14T05:47:55.744Z,-6.40
2018-02-14T05:50:23.329Z,-6.40
2018-02-14T05:52:50.927Z,-6.40
2018-02-14T05:55:18.510Z,-6.40
2018-02-14T05:57:46.137Z,-6.40
2018-02-14T06:00:13.737Z,-6.40
2018-02-14T06:02:41.362Z,-6.40
2018-02-14T06:05:08.950Z,-6.40
2018-02-14T06:07:37.365Z,-6.50
2018-02-14T06:10:04.944Z,-6.50
2018-02-14T06:12:32.547Z,-6.50
2018-02-14T06:15:00.893Z,-6.50
2018-02-14T06:17:28.504Z,-6.50
2018-02-14T06:19:56.133Z,-6.50
2018-02-14T06:22:24.479Z,-6.40
2018-02-14T06:24:52.121Z,-6.50
2018-02-14T06:27:19.706Z,-6.40
2018-02-14T06:29:47.326Z,-6.40
2018-02-14T06:32:14.935Z,-6.40
2018-02-14T06:34:42.550Z,-6.50
2018-02-14T06:37:10.125Z,-6.40
2018-02-14T06:39:37.780Z,-6.40
2018-02-14T06:42:05.392Z,-6.40
2018-02-14T06:44:33.795Z,-6.40
2018-02-14T06:47:01.402Z,-6.40
2018-02-14T06:49:29.015Z,-6.40
2018-02-14T06:51:56.601Z,-6.50
2018-02-14T06:54:24.217Z,-6.40
2018-02-14T06:56:58.326Z,-6.40
2018-02-14T06:59:26.694Z,-6.40
2018-02-14T07:01:55.051Z,-6.30
2018-02-14T07:04:22.659Z,-6.30
2018-02-14T07:06:50.235Z,-6.30
2018-02-14T07:09:17.858Z,-6.20
2018-02-14T07:11:46.219Z,-6.10
2018-02-14T07:14:13.847Z,-6.10
2018-02-14T07:16:41.486Z,-6.00
2018-02-14T07:19:09.059Z,-5.90
2018-02-14T07:21:36.672Z,-5.80
2018-02-14T07:24:05.082Z,-5.70
2018-02-14T07:26:32.740Z,-5.70
2018-02-14T07:29:00.417Z,-5.60
2018-02-14T07:31:28.093Z,-5.50
2018-02-14T07:33:58.961Z,-5.40
2018-02-14T07:36:26.603Z,-5.30
2018-02-14T07:38:54.250Z,-5.20
2018-02-14T07:41:21.878Z,-5.00
2018-02-14T07:43:49.467Z,-4.90
2018-02-14T07:46:17.076Z,-4.80
2018-02-14T07:48:45.443Z,-4.60
2018-02-14T07:51:13.838Z,-4.40
2018-02-14T07:53:42.198Z,-4.40
2018-02-14T07:56:09.820Z,-4.40
2018-02-14T07:58:37.404Z,-4.20
2018-02-14T08:01:05.032Z,-4.10
2018-02-14T08:03:32.614Z,-4.00
2018-02-14T08:06:01.008Z,-4.00
2018-02-14T08:08:28.620Z,-4.00
2018-02-14T08:10:56.464Z,-3.80
2018-02-14T08:13:24.077Z,-3.70
2018-02-14T08:15:51.733Z,-3.50
2018-02-14T08:18:19.349Z,-3.40
2018-02-14T08:20:47.704Z,-3.00
2018-02-14T08:23:15.320Z,-3.10
2018-02-14T08:25:42.917Z,-2.90
2018-02-14T08:28:10.528Z,-2.70
2018-02-14T08:30:38.115Z,-2.50
2018-02-14T08:33:05.722Z,-2.40
2018-02-14T08:35:34.080Z,-2.10
2018-02-14T08:38:01.782Z,-2.10
2018-02-14T08:40:29.359Z,-1.90
2018-02-14T08:42:57.075Z,-1.80
2018-02-14T08:45:25.410Z,-1.50
2018-02-14T08:47:53.037Z,-1.50
2018-02-14T08:50:20.633Z,-1.40
2018-02-14T08:52:48.235Z,-1.30
2018-02-14T08:55:16.621Z,-0.90
2018-02-14T08:57:44.212Z,-1.00
2018-02-14T09:00:11.834Z,-0.90
2018-02-14T09:02:40.199Z,-0.60
2018-02-14T09:05:08.596Z,-0.40
2018-02-14T09:07:36.190Z,-0.50
2018-02-14T09:10:03.808Z,-0.30
2018-02-14T09:12:32.172Z,0.00
2018-02-14T09:14:59.796Z,0.00
2018-02-14T09:17:27.361Z,0.20
2018-02-14T09:19:54.964Z,0.40
2018-02-14T09:22:23.313Z,0.60
2018-02-14T09:24:50.925Z,0.60
2018-02-14T09:27:18.499Z,0.70
2018-02-14T09:29:46.120Z,0.90
2018-02-14T09:32:14.449Z,1.20
2018-02-14T09:34:42.015Z,1.20
2018-02-14T09:37:09.640Z,1.40
2018-02-14T09:39:37.252Z,1.60
2018-02-14T09:42:04.887Z,1.70
2018-02-14T09:44:33.246Z,1.90
2018-02-14T09:47:00.865Z,1.90
2018-02-14T09:49:29.225Z,2.20
2018-02-14T09:51:56.838Z,2.20
2018-02-14T09:54:24.632Z,2.40
2018-02-14T09:56:52.273Z,2.50
2018-02-14T09:59:19.881Z,2.60
2018-02-14T10:01:47.501Z,2.80
2018-02-14T10:04:15.097Z,2.80
2018-02-14T10:06:42.739Z,3.00
2018-02-14T10:09:10.322Z,3.30
2018-02-14T10:11:37.962Z,3.40
2018-02-14T10:14:05.533Z,3.40
2018-02-14T10:16:33.172Z,3.60
2018-02-14T10:19:00.781Z,3.70
2018-02-14T10:21:29.131Z,4.00
2018-02-14T10:23:56.751Z,4.00
2018-02-14T10:26:24.338Z,4.10
2018-02-14T10:28:51.957Z,4.10
2018-02-14T10:31:19.531Z,4.20
2018-02-14T10:33:47.131Z,4.30
2018-02-14T10:36:14.733Z,4.40
2018-02-14T10:38:42.356Z,4.50
2018-02-14T10:41:09.938Z,4.60
2018-02-14T10:43:38.291Z,4.90
2018-02-14T10:46:05.859Z,4.90
2018-02-14T10:48:33.462Z,4.80
2018-02-14T10:51:01.044Z,5.10
2018-02-14T10:53:28.660Z,5.30
2018-02-14T10:55:56.273Z,5.20
2018-02-14T10:58:24.400Z,5.50
2018-02-14T11:00:57.678Z,5.60
2018-02-14T11:03:31.096Z,5.80
2018-02-14T11:06:04.248Z,5.90
2018-02-14T11:08:31.894Z,6.10
2018-02-14T11:10:59.508Z,6.10
2018-02-14T11:13:27.100Z,6.20
2018-02-14T11:15:54.726Z,6.20
2018-02-14T11:18:22.317Z,6.30
2018-02-14T11:20:49.936Z,6.40
2018-02-14T11:23:17.517Z,6.40
2018-02-14T11:25:45.188Z,6.30
2018-02-14T11:28:12.773Z,6.30
2018-02-14T11:30:40.398Z,6.40
2018-02-14T11:33:07.992Z,6.40
2018-02-14T11:35:35.600Z,6.50
2018-02-14T11:38:03.195Z,6.60
2018-02-14T11:40:31.578Z,6.60
2018-02-14T11:42:59.170Z,6.70
2018-02-14T11:45:26.793Z,6.70
2018-02-14T11:47:54.394Z,6.50
2018-02-14T11:50:22.766Z,6.30
2018-02-14T11:52:50.386Z,6.30
2018-02-14T11:55:17.975Z,6.20
2018-02-14T11:57:45.590Z,6.40
2018-02-14T12:00:13.207Z,6.20
2018-02-14T12:02:41.609Z,5.80
2018-02-14T12:05:09.210Z,5.90
2018-02-14T12:07:37.079Z,5.90
2018-02-14T12:10:04.677Z,6.10
2018-02-14T12:12:33.089Z,5.80
2018-02-14T12:15:00.680Z,5.80
2018-02-14T12:17:28.311Z,5.60
2018-02-14T12:19:55.908Z,5.50
2018-02-14T12:22:24.276Z,5.30
2018-02-14T12:24:51.872Z,5.20
2018-02-14T12:27:20.276Z,5.40
2018-02-14T12:29:47.854Z,5.40
2018-02-14T12:32:15.447Z,5.40
2018-02-14T12:34:43.062Z,5.50
2018-02-14T12:37:10.659Z,5.60
2018-02-14T12:39:38.293Z,5.50
2018-02-14T12:42:05.903Z,5.40
2018-02-14T12:44:33.531Z,5.20
2018-02-14T12:47:01.137Z,5.10
2018-02-14T12:49:29.552Z,4.80
2018-02-14T12:51:57.161Z,4.80
2018-02-14T12:54:24.784Z,4.80
2018-02-14T12:56:52.361Z,4.70
2018-02-14T12:59:20.758Z,4.50
2018-02-14T13:01:48.344Z,4.40
2018-02-14T13:04:16.720Z,4.30
2018-02-14T13:06:44.333Z,4.30
2018-02-14T13:09:11.942Z,4.40
2018-02-14T13:11:39.659Z,4.50
2018-02-14T13:14:07.254Z,4.90
2018-02-14T13:16:35.658Z,5.20
2018-02-14T13:19:03.236Z,5.20
2018-02-14T13:21:31.396Z,5.00
2018-02-14T13:23:58.982Z,4.80
2018-02-14T13:26:26.599Z,4.60
2018-02-14T13:28:54.181Z,4.70
2018-02-14T13:31:21.793Z,4.60
2018-02-14T13:33:50.145Z,4.40
2018-02-14T13:36:17.755Z,4.40
2018-02-14T13:38:45.341Z,4.30
2018-02-14T13:41:12.949Z,4.20
2018-02-14T13:43:40.533Z,4.30
2018-02-14T13:46:08.158Z,4.40
2018-02-14T13:48:35.730Z,4.60
2018-02-14T13:51:04.171Z,5.20
2018-02-14T13:53:31.776Z,5.20
2018-02-14T13:56:00.137Z,5.60
2018-02-14T13:58:27.736Z,5.60
2018-02-14T14:00:55.320Z,5.80
2018-02-14T14:03:22.939Z,5.90
2018-02-14T14:05:51.271Z,6.00
2018-02-14T14:08:18.874Z,6.00
2018-02-14T14:10:47.220Z,6.20
2018-02-14T14:13:14.810Z,6.10
2018-02-14T14:15:43.143Z,6.30
2018-02-14T14:18:10.756Z,6.30
2018-02-14T14:20:38.330Z,6.40
2018-02-14T14:23:05.948Z,6.50
2018-02-14T14:25:33.506Z,6.50
2018-02-14T14:28:01.090Z,6.50
2018-02-14T14:30:28.715Z,6.30
2018-02-14T14:32:56.279Z,6.40
2018-02-14T14:35:23.898Z,6.30
2018-02-14T14:37:51.486Z,6.40
2018-02-14T14:40:19.090Z,6.40
2018-02-14T14:42:47.429Z,6.30
2018-02-14T14:45:15.038Z,6.20
2018-02-14T14:47:42.610Z,6.00
2018-02-14T14:50:10.216Z,6.20
2018-02-14T14:52:37.792Z,6.20
2018-02-14T14:55:06.151Z,6.10
2018-02-14T14:57:33.733Z,6.00
2018-02-14T15:00:02.121Z,6.10
2018-02-14T15:02:30.487Z,6.10
2018-02-14T15:04:58.815Z,6.10
2018-02-14T15:07:26.426Z,6.10
2018-02-14T15:09:54.768Z,6.00
2018-02-14T15:12:22.374Z,5.90
2018-02-14T15:14:49.961Z,5.80
2018-02-14T15:17:17.568Z,5.70
2018-02-14T15:19:45.136Z,5.70
2018-02-14T15:22:13.510Z,5.70
2018-02-14T15:24:41.078Z,5.70
2018-02-14T15:27:09.442Z,5.60
2018-02-14T15:29:37.025Z,5.60
2018-02-14T15:32:04.685Z,5.50
2018-02-14T15:34:33.032Z,5.10
2018-02-14T15:37:00.639Z,5.00
2018-02-14T15:39:28.227Z,4.90
2018-02-14T15:41:55.871Z,4.80
2018-02-14T15:44:23.475Z,4.80
2018-02-14T15:46:51.060Z,4.60
2018-02-14T15:49:19.445Z,4.30
2018-02-14T15:51:47.043Z,4.30
2018-02-14T15:54:14.664Z,4.10
2018-02-14T15:56:42.258Z,3.90
2018-02-14T15:59:09.931Z,3.80
2018-02-14T16:01:37.483Z,3.60
2018-02-14T16:04:05.090Z,3.40
2018-02-14T16:06:33.432Z,3.10
2018-02-14T16:09:01.047Z,3.10
2018-02-14T16:11:28.624Z,3.00
2018-02-14T16:13:56.247Z,2.80
2018-02-14T16:16:24.599Z,2.50
2018-02-14T16:18:52.221Z,2.50
2018-02-14T16:21:20.572Z,2.30
2018-02-14T16:23:48.206Z,2.30
2018-02-14T16:26:15.791Z,2.20
2018-02-14T16:28:44.174Z,2.10
2018-02-14T16:31:11.817Z,2.00
2018-02-14T16:33:40.169Z,1.90
2018-02-14T16:36:07.784Z,1.80
2018-02-14T16:38:35.374Z,1.70
2018-02-14T16:41:02.991Z,1.70
2018-02-14T16:43:30.599Z,1.70
2018-02-14T16:45:58.199Z,1.50
2018-02-14T16:48:26.539Z,1.40
2018-02-14T16:50:54.131Z,1.40
2018-02-14T16:53:22.483Z,1.20
2018-02-14T16:55:50.084Z,1.20
2018-02-14T16:58:18.421Z,1.10
2018-02-14T17:00:46.034Z,1.00
2018-02-14T17:03:13.620Z,1.00
2018-02-14T17:05:41.233Z,0.90
2018-02-14T17:08:09.606Z,0.60
2018-02-14T17:10:37.954Z,0.60
2018-02-14T17:13:05.726Z,0.60
2018-02-14T17:15:33.308Z,0.50
2018-02-14T17:18:01.712Z,0.40
2018-02-14T17:20:29.379Z,0.40
2018-02-14T17:22:57.014Z,0.30
2018-02-14T17:25:25.352Z,0.10
2018-02-14T17:27:52.965Z,0.10
2018-02-14T17:30:20.560Z,0.10
2018-02-14T17:32:48.193Z,-0.10
2018-02-14T17:35:15.776Z,-0.20
2018-02-14T17:37:43.389Z,-0.20
2018-02-14T17:40:10.971Z,-0.10
2018-02-14T17:42:38.592Z,-0.10
2018-02-14T17:45:06.367Z,0.00
2018-02-14T17:47:34.712Z,0.00
2018-02-14T17:50:02.476Z,0.00
2018-02-14T17:52:30.088Z,0.00
2018-02-14T17:54:57.709Z,0.00
2018-02-14T17:57:25.300Z,0.00
2018-02-14T17:59:52.904Z,0.00
2018-02-14T18:02:20.487Z,0.00
2018-02-14T18:04:48.100Z,-0.10
2018-02-14T18:07:15.701Z,-0.10
2018-02-14T18:09:43.340Z,-0.10
2018-02-14T18:12:11.074Z,-0.20
2018-02-14T18:14:38.675Z,-0.20
2018-02-14T18:17:06.293Z,-0.30
2018-02-14T18:19:33.876Z,-0.30
2018-02-14T18:22:01.507Z,-0.30
2018-02-14T18:24:29.099Z,-0.40
2018-02-14T18:26:56.743Z,-0.50
2018-02-14T18:29:24.352Z,-0.60
2018-02-14T18:31:51.990Z,-0.70
2018-02-14T18:34:19.609Z,-0.80
2018-02-14T18:36:47.227Z,-0.80
2018-02-14T18:39:14.833Z,-0.80
2018-02-14T18:41:42.473Z,-0.90
2018-02-14T18:44:10.846Z,-1.00
2018-02-14T18:46:39.201Z,-1.10
2018-02-14T18:49:06.801Z,-1.10
2018-02-14T18:51:34.402Z,-1.10
2018-02-14T18:54:02.013Z,-1.20
2018-02-14T18:56:30.350Z,-1.20
2018-02-14T18:58:57.960Z,-1.20
2018-02-14T19:01:25.556Z,-1.20
2018-02-14T19:03:53.155Z,-1.20
2018-02-14T19:06:21.507Z,-1.20
2018-02-14T19:08:49.109Z,-1.30
2018-02-14T19:11:17.454Z,-1.30
2018-02-14T19:13:45.067Z,-1.30
2018-02-14T19:16:12.650Z,-1.40
2018-02-14T19:18:40.285Z,-1.40
2018-02-14T19:21:07.872Z,-1.50
2018-02-14T19:23:35.458Z,-1.50
2018-02-14T19:26:03.106Z,-1.50
2018-02-14T19:28:30.706Z,-1.50
2018-02-14T19:30:58.343Z,-1.50
2018-02-14T19:33:25.945Z,-1.50
2018-02-14T19:35:53.559Z,-1.60
2018-02-14T19:38:21.138Z,-1.60
2018-02-14T19:40:49.512Z,-1.80
2018-02-14T19:43:17.860Z,-1.90
2018-02-14T19:45:45.480Z,-1.90
2018-02-14T19:48:13.064Z,-1.90
2018-02-14T19:50:40.692Z,-1.80
2018-02-14T19:53:08.275Z,-1.90
2018-02-14T19:55:35.865Z,-1.90
2018-02-14T19:58:03.473Z,-2.00
2018-02-14T20:00:31.075Z,-1.90
2018-02-14T20:02:58.692Z,-2.00
2018-02-14T20:05:26.269Z,-2.00
2018-02-14T20:07:53.874Z,-2.10
2018-02-14T20:10:21.450Z,-2.10
2018-02-14T20:12:49.822Z,-2.10
2018-02-14T20:15:18.182Z,-2.20
2018-02-14T20:17:45.808Z,-2.20
2018-02-14T20:20:13.381Z,-2.20
2018-02-14T20:22:41.028Z,-2.20
2018-02-14T20:25:08.610Z,-2.20
2018-02-14T20:27:36.241Z,-2.20
2018-02-14T20:30:03.836Z,-2.20
2018-02-14T20:32:31.457Z,-2.20
2018-02-14T20:34:59.052Z,-2.20
2018-02-14T20:37:26.629Z,-2.20
2018-02-14T20:39:54.243Z,-2.20
2018-02-14T20:42:24.172Z,-2.20
2018-02-14T20:44:53.802Z,-2.20
2018-02-14T20:47:21.396Z,-2.20
2018-02-14T20:49:48.996Z,-2.20
2018-02-14T20:52:16.614Z,-2.30
2018-02-14T20:54:44.236Z,-2.30
2018-02-14T20:57:11.814Z,-2.30
2018-02-14T20:59:39.426Z,-2.30
2018-02-14T21:04:40.037Z,-2.30
2018-02-14T21:07:08.412Z,-2.40
2018-02-14T21:09:36.819Z,-2.50
2018-02-14T21:12:04.444Z,-2.40
2018-02-14T21:14:32.846Z,-2.50
2018-02-14T21:17:00.451Z,-2.50
2018-02-14T21:19:28.071Z,-2.50
2018-02-14T21:21:55.704Z,-2.50
2018-02-14T21:24:24.071Z,-2.60
2018-02-14T21:26:51.702Z,-2.60
2018-02-14T21:29:19.301Z,-2.60
2018-02-14T21:31:47.892Z,-2.70
2018-02-14T21:34:16.275Z,-2.60
2018-02-14T21:36:43.917Z,-2.70
2018-02-14T21:39:11.526Z,-2.70
2018-02-14T21:41:39.164Z,-2.70
2018-02-14T21:44:06.768Z,-2.70
2018-02-14T21:46:35.879Z,-2.70
2018-02-14T21:49:03.598Z,-2.80
2018-02-14T21:51:31.234Z,-2.80
2018-02-14T21:53:59.598Z,-2.80
2018-02-14T21:56:28.003Z,-2.80
2018-02-14T21:58:55.614Z,-2.90
2018-02-14T22:01:23.219Z,-2.90
2018-02-14T22:03:50.855Z,-2.90
2018-02-14T22:06:19.227Z,-2.90
2018-02-14T22:08:47.625Z,-2.90
2018-02-14T22:11:16.023Z,-2.80
2018-02-14T22:13:43.676Z,-2.90
2018-02-14T22:16:11.309Z,-2.90
2018-02-14T22:18:39.751Z,-2.90
2018-02-14T22:21:07.355Z,-3.00
2018-02-14T22:23:35.764Z,-2.90
2018-02-14T22:26:03.613Z,-3.00
2018-02-14T22:28:31.273Z,-3.00
2018-02-14T22:30:59.646Z,-3.00
2018-02-14T22:33:28.039Z,-3.00
2018-02-14T22:35:55.666Z,-3.00
2018-02-14T22:38:24.080Z,-3.00
2018-02-14T22:40:51.748Z,-3.00
2018-02-14T22:43:19.416Z,-2.90
2018-02-14T22:45:47.043Z,-2.90
2018-02-14T22:48:15.411Z,-2.80
2018-02-14T22:50:43.817Z,-2.80
2018-02-14T22:53:11.430Z,-2.90
2018-02-14T22:55:39.062Z,-2.80
2018-02-14T22:58:06.661Z,-2.80
2018-02-14T23:00:34.299Z,-2.70
2018-02-14T23:03:01.918Z,-2.70
2018-02-14T23:05:29.543Z,-2.70
2018-02-14T23:07:57.166Z,-2.70
2018-02-14T23:10:24.808Z,-2.70
2018-02-14T23:12:52.431Z,-2.70
2018-02-14T23:15:20.839Z,-2.60
2018-02-14T23:17:48.438Z,-2.60
2018-02-14T23:20:16.095Z,-2.60
2018-02-14T23:22:43.713Z,-2.60
2018-02-14T23:25:11.368Z,-2.60
2018-02-14T23:27:39.756Z,-2.60
2018-02-14T23:30:07.477Z,-2.60
2018-02-14T23:32:35.116Z,-2.60
2018-02-14T23:35:02.856Z,-2.60
2018-02-14T23:37:30.497Z,-2.60
2018-02-14T23:39:58.103Z,-2.60
2018-02-14T23:42:25.755Z,-2.60
2018-02-14T23:44:53.377Z,-2.60
2018-02-14T23:47:21.773Z,-2.60
2018-02-14T23:49:49.394Z,-2.60
2018-02-14T23:52:17.805Z,-2.60
2018-02-14T23:54:45.419Z,-2.60
2018-02-14T23:57:13.215Z,-2.60
2018-02-14T23:59:41.588Z,-2.50
